sensor_id;sensor_type;location;lat;lon;timestamp;pressure;altitude;pressure_sealevel;temperature;humidity
73518;BME280;61766;60.318;25.044;2023-07-02T00:00:02;99120.92;;;20.00;41.93
73518;BME280;61766;60.318;25.044;2023-07-02T00:02:28;99118.70;;;20.29;42.02
73518;BME280;61766;60.318;25.044;2023-07-02T00:04:53;99119.99;;;20.26;42.15
73518;BME280;61766;60.318;25.044;2023-07-02T00:07:19;99119.56;;;20.45;42.54
73518;BME280;61766;60.318;25.044;2023-07-02T00:09:45;99118.90;;;20.17;42.76
73518;BME280;61766;60.318;25.044;2023-07-02T00:12:13;99119.80;;;20.64;42.74
73518;BME280;61766;60.318;25.044;2023-07-02T00:14:37;99119.89;;;20.27;43.12
73518;BME280;61766;60.318;25.044;2023-07-02T00:17:03;99118.74;;;20.55;43.11
73518;BME280;61766;60.318;25.044;2023-07-02T00:19:29;99114.40;;;19.96;43.37
73518;BME280;61766;60.318;25.044;2023-07-02T00:21:54;99113.56;;;20.45;43.22
73518;BME280;61766;60.318;25.044;2023-07-02T00:24:20;99112.64;;;20.16;43.25
73518;BME280;61766;60.318;25.044;2023-07-02T00:26:46;99111.67;;;20.19;43.35
73518;BME280;61766;60.318;25.044;2023-07-02T00:29:11;99111.63;;;19.99;43.25
73518;BME280;61766;60.318;25.044;2023-07-02T00:34:03;99111.04;;;20.28;43.15
73518;BME280;61766;60.318;25.044;2023-07-02T00:36:29;99111.51;;;19.92;43.11
73518;BME280;61766;60.318;25.044;2023-07-02T00:38:54;99110.37;;;20.37;42.87
73518;BME280;61766;60.318;25.044;2023-07-02T00:41:20;99109.59;;;20.32;42.47
73518;BME280;61766;60.318;25.044;2023-07-02T00:43:46;99111.92;;;20.36;42.71
73518;BME280;61766;60.318;25.044;2023-07-02T00:46:13;99110.34;;;20.38;42.76
73518;BME280;61766;60.318;25.044;2023-07-02T00:48:38;99109.98;;;20.49;43.03
73518;BME280;61766;60.318;25.044;2023-07-02T00:51:03;99110.88;;;20.56;43.52
73518;BME280;61766;60.318;25.044;2023-07-02T00:53:29;99109.05;;;20.42;43.46
73518;BME280;61766;60.318;25.044;2023-07-02T00:55:55;99111.37;;;20.44;44.50
73518;BME280;61766;60.318;25.044;2023-07-02T00:58:21;99111.90;;;20.21;44.96
73518;BME280;61766;60.318;25.044;2023-07-02T01:00:46;99111.33;;;20.24;45.72
73518;BME280;61766;60.318;25.044;2023-07-02T01:03:12;99106.39;;;20.22;45.48
73518;BME280;61766;60.318;25.044;2023-07-02T01:05:37;99103.33;;;20.40;45.13
73518;BME280;61766;60.318;25.044;2023-07-02T01:08:03;99102.58;;;20.27;45.68
73518;BME280;61766;60.318;25.044;2023-07-02T01:10:29;99101.61;;;20.38;45.45
73518;BME280;61766;60.318;25.044;2023-07-02T01:12:55;99102.13;;;19.78;46.46
73518;BME280;61766;60.318;25.044;2023-07-02T01:15:21;99100.43;;;19.87;45.89
73518;BME280;61766;60.318;25.044;2023-07-02T01:17:46;99096.88;;;20.23;46.03
73518;BME280;61766;60.318;25.044;2023-07-02T01:20:13;99096.33;;;20.32;46.12
73518;BME280;61766;60.318;25.044;2023-07-02T01:22:38;99094.05;;;19.81;47.09
73518;BME280;61766;60.318;25.044;2023-07-02T01:25:04;99095.90;;;19.89;47.10
73518;BME280;61766;60.318;25.044;2023-07-02T01:27:31;99094.52;;;19.65;47.57
73518;BME280;61766;60.318;25.044;2023-07-02T01:29:55;99094.02;;;19.53;47.65
73518;BME280;61766;60.318;25.044;2023-07-02T01:32:21;99098.15;;;19.80;47.35
73518;BME280;61766;60.318;25.044;2023-07-02T01:34:46;99094.60;;;19.71;47.54
73518;BME280;61766;60.318;25.044;2023-07-02T01:37:12;99095.87;;;19.99;47.17
73518;BME280;61766;60.318;25.044;2023-07-02T01:39:38;99096.51;;;20.05;46.94
73518;BME280;61766;60.318;25.044;2023-07-02T01:42:10;99096.37;;;19.94;47.24
73518;BME280;61766;60.318;25.044;2023-07-02T01:44:29;99090.04;;;19.53;47.99
73518;BME280;61766;60.318;25.044;2023-07-02T01:46:55;99092.40;;;19.60;48.05
73518;BME280;61766;60.318;25.044;2023-07-02T01:49:21;99089.87;;;19.81;47.66
73518;BME280;61766;60.318;25.044;2023-07-02T01:51:48;99089.72;;;19.92;47.30
73518;BME280;61766;60.318;25.044;2023-07-02T01:54:12;99089.30;;;19.90;47.90
73518;BME280;61766;60.318;25.044;2023-07-02T01:56:38;99086.01;;;19.37;48.73
73518;BME280;61766;60.318;25.044;2023-07-02T01:59:04;99085.35;;;19.39;48.56
73518;BME280;61766;60.318;25.044;2023-07-02T02:01:30;99085.52;;;19.67;48.15
73518;BME280;61766;60.318;25.044;2023-07-02T02:03:55;99087.21;;;19.67;47.72
73518;BME280;61766;60.318;25.044;2023-07-02T02:06:21;99090.92;;;20.01;47.30
73518;BME280;61766;60.318;25.044;2023-07-02T02:08:46;99087.49;;;19.61;48.31
73518;BME280;61766;60.318;25.044;2023-07-02T02:11:12;99084.85;;;19.39;48.68
73518;BME280;61766;60.318;25.044;2023-07-02T02:13:38;99084.98;;;19.21;49.35
73518;BME280;61766;60.318;25.044;2023-07-02T02:16:04;99081.53;;;19.54;48.54
73518;BME280;61766;60.318;25.044;2023-07-02T02:18:29;99082.10;;;19.45;48.34
73518;BME280;61766;60.318;25.044;2023-07-02T02:20:55;99083.86;;;19.65;48.46
73518;BME280;61766;60.318;25.044;2023-07-02T02:23:21;99081.71;;;19.15;48.79
73518;BME280;61766;60.318;25.044;2023-07-02T02:25:47;99085.89;;;19.41;48.52
73518;BME280;61766;60.318;25.044;2023-07-02T02:28:12;99086.83;;;19.71;47.80
73518;BME280;61766;60.318;25.044;2023-07-02T02:30:38;99077.44;;;19.57;48.23
73518;BME280;61766;60.318;25.044;2023-07-02T02:33:04;99075.41;;;19.85;47.12
73518;BME280;61766;60.318;25.044;2023-07-02T02:35:29;99071.03;;;19.66;47.40
73518;BME280;61766;60.318;25.044;2023-07-02T02:37:55;99068.74;;;19.84;46.67
73518;BME280;61766;60.318;25.044;2023-07-02T02:40:21;99067.92;;;19.59;47.32
73518;BME280;61766;60.318;25.044;2023-07-02T02:42:46;99069.10;;;20.15;46.53
73518;BME280;61766;60.318;25.044;2023-07-02T02:45:12;99066.90;;;19.90;46.85
73518;BME280;61766;60.318;25.044;2023-07-02T02:47:38;99065.63;;;20.09;46.16
73518;BME280;61766;60.318;25.044;2023-07-02T02:50:05;99064.24;;;20.00;46.28
73518;BME280;61766;60.318;25.044;2023-07-02T02:52:29;99061.69;;;20.28;45.84
73518;BME280;61766;60.318;25.044;2023-07-02T02:54:55;99061.60;;;20.19;46.20
73518;BME280;61766;60.318;25.044;2023-07-02T02:57:21;99059.02;;;20.51;45.42
73518;BME280;61766;60.318;25.044;2023-07-02T02:59:47;99061.75;;;20.35;45.30
73518;BME280;61766;60.318;25.044;2023-07-02T03:02:12;99064.06;;;19.83;47.31
73518;BME280;61766;60.318;25.044;2023-07-02T03:04:38;99062.58;;;20.37;46.73
73518;BME280;61766;60.318;25.044;2023-07-02T03:07:04;99063.79;;;20.06;47.62
73518;BME280;61766;60.318;25.044;2023-07-02T03:09:30;99062.59;;;18.94;50.35
73518;BME280;61766;60.318;25.044;2023-07-02T03:11:55;99058.94;;;18.70;50.70
73518;BME280;61766;60.318;25.044;2023-07-02T03:14:21;99057.15;;;19.40;49.96
73518;BME280;61766;60.318;25.044;2023-07-02T03:16:47;99056.57;;;19.94;49.29
73518;BME280;61766;60.318;25.044;2023-07-02T03:19:13;99060.41;;;19.50;49.47
73518;BME280;61766;60.318;25.044;2023-07-02T03:21:39;99060.81;;;19.64;49.39
73518;BME280;61766;60.318;25.044;2023-07-02T03:24:05;99061.24;;;19.76;49.44
73518;BME280;61766;60.318;25.044;2023-07-02T03:26:30;99063.84;;;20.10;48.56
73518;BME280;61766;60.318;25.044;2023-07-02T03:28:56;99058.91;;;20.14;47.98
73518;BME280;61766;60.318;25.044;2023-07-02T03:31:22;99057.34;;;20.46;47.41
73518;BME280;61766;60.318;25.044;2023-07-02T03:33:47;99056.10;;;20.37;47.66
73518;BME280;61766;60.318;25.044;2023-07-02T03:36:13;99055.86;;;20.25;47.07
73518;BME280;61766;60.318;25.044;2023-07-02T03:38:39;99053.79;;;20.55;46.70
73518;BME280;61766;60.318;25.044;2023-07-02T03:41:05;99052.85;;;20.78;46.17
73518;BME280;61766;60.318;25.044;2023-07-02T03:43:31;99055.61;;;21.00;45.73
73518;BME280;61766;60.318;25.044;2023-07-02T03:45:57;99053.68;;;20.82;45.66
73518;BME280;61766;60.318;25.044;2023-07-02T03:48:22;99052.35;;;20.71;46.24
73518;BME280;61766;60.318;25.044;2023-07-02T03:50:48;99053.63;;;20.61;47.39
73518;BME280;61766;60.318;25.044;2023-07-02T03:53:14;99048.71;;;20.63;47.93
73518;BME280;61766;60.318;25.044;2023-07-02T03:55:39;99046.03;;;20.09;48.91
73518;BME280;61766;60.318;25.044;2023-07-02T03:58:06;99046.07;;;19.82;49.19
73518;BME280;61766;60.318;25.044;2023-07-02T04:00:31;99046.91;;;20.45;48.47
73518;BME280;61766;60.318;25.044;2023-07-02T04:02:57;99045.74;;;19.68;50.36
73518;BME280;61766;60.318;25.044;2023-07-02T04:05:22;99046.67;;;19.75;50.06
73518;BME280;61766;60.318;25.044;2023-07-02T04:07:48;99044.20;;;19.71;50.68
73518;BME280;61766;60.318;25.044;2023-07-02T04:10:14;99043.41;;;19.72;49.94
73518;BME280;61766;60.318;25.044;2023-07-02T04:12:39;99042.98;;;19.94;50.41
73518;BME280;61766;60.318;25.044;2023-07-02T04:15:05;99045.39;;;19.95;49.92
73518;BME280;61766;60.318;25.044;2023-07-02T04:17:31;99045.42;;;20.51;49.62
73518;BME280;61766;60.318;25.044;2023-07-02T04:19:57;99041.96;;;20.09;50.02
73518;BME280;61766;60.318;25.044;2023-07-02T04:22:22;99038.77;;;20.19;50.00
73518;BME280;61766;60.318;25.044;2023-07-02T04:24:48;99038.21;;;20.30;50.34
73518;BME280;61766;60.318;25.044;2023-07-02T04:27:14;99041.63;;;20.68;49.61
73518;BME280;61766;60.318;25.044;2023-07-02T04:29:39;99042.75;;;20.35;50.20
73518;BME280;61766;60.318;25.044;2023-07-02T04:32:05;99041.00;;;21.05;48.81
73518;BME280;61766;60.318;25.044;2023-07-02T04:34:31;99044.10;;;20.45;48.77
73518;BME280;61766;60.318;25.044;2023-07-02T04:36:56;99042.31;;;20.27;49.64
73518;BME280;61766;60.318;25.044;2023-07-02T04:39:22;99038.43;;;20.36;49.94
73518;BME280;61766;60.318;25.044;2023-07-02T04:41:48;99033.29;;;20.56;49.36
73518;BME280;61766;60.318;25.044;2023-07-02T04:44:14;99031.27;;;20.71;48.86
73518;BME280;61766;60.318;25.044;2023-07-02T04:46:39;99030.81;;;21.36;48.59
73518;BME280;61766;60.318;25.044;2023-07-02T04:49:05;99032.26;;;20.97;48.98
73518;BME280;61766;60.318;25.044;2023-07-02T04:51:31;99030.20;;;21.02;48.36
73518;BME280;61766;60.318;25.044;2023-07-02T04:53:57;99028.73;;;21.55;47.88
73518;BME280;61766;60.318;25.044;2023-07-02T04:56:22;99029.47;;;21.68;47.54
73518;BME280;61766;60.318;25.044;2023-07-02T04:58:48;99031.89;;;21.57;46.71
73518;BME280;61766;60.318;25.044;2023-07-02T05:01:14;99032.81;;;21.55;46.71
73518;BME280;61766;60.318;25.044;2023-07-02T05:03:40;99034.45;;;21.26;46.65
73518;BME280;61766;60.318;25.044;2023-07-02T05:06:05;99040.61;;;20.78;47.54
73518;BME280;61766;60.318;25.044;2023-07-02T05:08:31;99040.89;;;21.35;49.36
73518;BME280;61766;60.318;25.044;2023-07-02T05:10:57;99040.42;;;21.84;47.23
73518;BME280;61766;60.318;25.044;2023-07-02T05:13:22;99041.86;;;22.25;45.49
73518;BME280;61766;60.318;25.044;2023-07-02T05:15:48;99040.28;;;21.20;46.76
73518;BME280;61766;60.318;25.044;2023-07-02T05:18:13;99043.31;;;21.36;47.74
73518;BME280;61766;60.318;25.044;2023-07-02T05:20:39;99047.27;;;21.00;47.51
73518;BME280;61766;60.318;25.044;2023-07-02T05:23:05;99048.02;;;21.14;48.18
73518;BME280;61766;60.318;25.044;2023-07-02T05:25:31;99049.20;;;20.80;49.55
73518;BME280;61766;60.318;25.044;2023-07-02T05:27:56;99047.70;;;21.35;49.42
73518;BME280;61766;60.318;25.044;2023-07-02T05:30:22;99042.98;;;21.36;48.12
73518;BME280;61766;60.318;25.044;2023-07-02T05:32:48;99045.48;;;21.03;49.04
73518;BME280;61766;60.318;25.044;2023-07-02T05:35:14;99045.12;;;21.61;47.59
73518;BME280;61766;60.318;25.044;2023-07-02T05:37:39;99047.12;;;21.63;47.19
73518;BME280;61766;60.318;25.044;2023-07-02T05:40:06;99045.06;;;21.53;46.59
73518;BME280;61766;60.318;25.044;2023-07-02T05:42:31;99046.81;;;21.77;46.12
73518;BME280;61766;60.318;25.044;2023-07-02T05:44:57;99048.53;;;21.39;46.82
73518;BME280;61766;60.318;25.044;2023-07-02T05:47:22;99054.22;;;20.87;48.07
73518;BME280;61766;60.318;25.044;2023-07-02T05:49:48;99051.60;;;21.02;46.78
73518;BME280;61766;60.318;25.044;2023-07-02T05:52:13;99049.20;;;21.27;46.84
73518;BME280;61766;60.318;25.044;2023-07-02T05:54:42;99047.47;;;21.57;47.36
73518;BME280;61766;60.318;25.044;2023-07-02T05:57:05;99042.53;;;22.10;47.25
73518;BME280;61766;60.318;25.044;2023-07-02T05:59:30;99042.13;;;22.09;44.54
73518;BME280;61766;60.318;25.044;2023-07-02T06:01:56;99043.23;;;21.44;44.95
73518;BME280;61766;60.318;25.044;2023-07-02T06:04:22;99042.04;;;21.45;46.41
73518;BME280;61766;60.318;25.044;2023-07-02T06:06:47;99038.98;;;21.79;44.70
73518;BME280;61766;60.318;25.044;2023-07-02T06:09:13;99038.28;;;21.42;45.72
73518;BME280;61766;60.318;25.044;2023-07-02T06:11:39;99036.77;;;21.57;46.02
73518;BME280;61766;60.318;25.044;2023-07-02T06:14:05;99034.28;;;22.37;43.21
73518;BME280;61766;60.318;25.044;2023-07-02T06:16:30;99032.92;;;22.12;44.49
73518;BME280;61766;60.318;25.044;2023-07-02T06:18:56;99034.32;;;23.32;40.44
73518;BME280;61766;60.318;25.044;2023-07-02T06:21:21;99034.49;;;21.89;42.24
73518;BME280;61766;60.318;25.044;2023-07-02T06:23:47;99032.84;;;22.44;42.28
73518;BME280;61766;60.318;25.044;2023-07-02T06:26:15;99032.70;;;22.04;41.38
73518;BME280;61766;60.318;25.044;2023-07-02T06:28:39;99029.33;;;21.74;42.53
73518;BME280;61766;60.318;25.044;2023-07-02T06:31:04;99030.83;;;21.82;43.13
73518;BME280;61766;60.318;25.044;2023-07-02T06:33:30;99024.54;;;21.99;44.03
73518;BME280;61766;60.318;25.044;2023-07-02T06:35:56;99026.52;;;22.56;42.21
73518;BME280;61766;60.318;25.044;2023-07-02T06:38:21;99028.43;;;22.81;40.94
73518;BME280;61766;60.318;25.044;2023-07-02T06:40:47;99026.12;;;22.85;41.04
73518;BME280;61766;60.318;25.044;2023-07-02T06:43:12;99021.50;;;22.78;40.94
73518;BME280;61766;60.318;25.044;2023-07-02T06:48:04;99019.87;;;22.47;40.34
73518;BME280;61766;60.318;25.044;2023-07-02T06:50:30;99017.86;;;21.83;40.33
73518;BME280;61766;60.318;25.044;2023-07-02T06:52:55;99013.80;;;23.05;38.60
73518;BME280;61766;60.318;25.044;2023-07-02T06:55:20;99007.01;;;23.20;39.11
73518;BME280;61766;60.318;25.044;2023-07-02T06:57:46;99003.41;;;23.43;38.84
73518;BME280;61766;60.318;25.044;2023-07-02T07:00:12;99005.93;;;23.92;37.80
73518;BME280;61766;60.318;25.044;2023-07-02T07:02:37;99004.97;;;24.46;38.89
73518;BME280;61766;60.318;25.044;2023-07-02T07:05:03;99001.98;;;25.00;34.55
73518;BME280;61766;60.318;25.044;2023-07-02T07:07:28;98996.94;;;25.10;33.99
73518;BME280;61766;60.318;25.044;2023-07-02T07:09:54;98996.74;;;25.07;33.89
73518;BME280;61766;60.318;25.044;2023-07-02T07:12:19;98989.89;;;24.97;34.84
73518;BME280;61766;60.318;25.044;2023-07-02T07:14:45;98990.39;;;24.46;34.01
73518;BME280;61766;60.318;25.044;2023-07-02T07:19:38;98993.96;;;24.08;34.83
73518;BME280;61766;60.318;25.044;2023-07-02T07:24:28;98995.68;;;24.26;35.05
73518;BME280;61766;60.318;25.044;2023-07-02T07:26:53;98997.08;;;23.27;36.51
73518;BME280;61766;60.318;25.044;2023-07-02T07:29:19;99011.77;;;23.19;37.52
73518;BME280;61766;60.318;25.044;2023-07-02T07:31:44;99025.77;;;22.09;44.56
73518;BME280;61766;60.318;25.044;2023-07-02T07:34:10;99021.97;;;21.76;46.98
73518;BME280;61766;60.318;25.044;2023-07-02T07:36:36;99021.28;;;21.16;46.65
73518;BME280;61766;60.318;25.044;2023-07-02T07:39:02;99023.00;;;20.76;44.75
73518;BME280;61766;60.318;25.044;2023-07-02T07:41:27;99023.54;;;21.23;43.37
73518;BME280;61766;60.318;25.044;2023-07-02T07:43:53;99025.27;;;20.86;44.78
73518;BME280;61766;60.318;25.044;2023-07-02T07:46:18;99023.30;;;20.96;44.17
73518;BME280;61766;60.318;25.044;2023-07-02T07:48:44;99019.40;;;21.52;44.12
73518;BME280;61766;60.318;25.044;2023-07-02T07:51:09;99017.67;;;21.71;44.28
73518;BME280;61766;60.318;25.044;2023-07-02T07:53:37;99014.55;;;21.54;44.69
73518;BME280;61766;60.318;25.044;2023-07-02T07:56:01;99010.40;;;22.13;44.62
73518;BME280;61766;60.318;25.044;2023-07-02T07:58:26;99009.69;;;22.41;45.70
73518;BME280;61766;60.318;25.044;2023-07-02T08:00:52;99007.44;;;22.84;45.65
73518;BME280;61766;60.318;25.044;2023-07-02T08:03:18;99008.32;;;23.07;45.08
73518;BME280;61766;60.318;25.044;2023-07-02T08:05:43;99006.27;;;23.42;45.21
73518;BME280;61766;60.318;25.044;2023-07-02T08:08:09;99012.26;;;23.86;41.55
73518;BME280;61766;60.318;25.044;2023-07-02T08:10:35;99009.46;;;23.70;41.10
73518;BME280;61766;60.318;25.044;2023-07-02T08:13:01;99005.34;;;24.46;42.89
73518;BME280;61766;60.318;25.044;2023-07-02T08:15:26;99005.22;;;24.62;41.91
73518;BME280;61766;60.318;25.044;2023-07-02T08:17:52;99002.25;;;23.91;38.54
73518;BME280;61766;60.318;25.044;2023-07-02T08:20:17;99003.80;;;23.27;41.57
73518;BME280;61766;60.318;25.044;2023-07-02T08:22:43;99005.13;;;22.16;44.65
73518;BME280;61766;60.318;25.044;2023-07-02T08:25:08;99000.38;;;22.21;43.95
73518;BME280;61766;60.318;25.044;2023-07-02T08:27:34;99003.35;;;21.95;45.39
73518;BME280;61766;60.318;25.044;2023-07-02T08:30:00;99004.93;;;21.37;44.49
73518;BME280;61766;60.318;25.044;2023-07-02T08:32:25;99004.89;;;21.33;44.59
73518;BME280;61766;60.318;25.044;2023-07-02T08:34:51;98999.06;;;21.60;45.34
73518;BME280;61766;60.318;25.044;2023-07-02T08:37:17;99002.87;;;21.70;45.70
73518;BME280;61766;60.318;25.044;2023-07-02T08:39:44;99014.64;;;21.11;46.97
73518;BME280;61766;60.318;25.044;2023-07-02T08:42:09;99012.70;;;20.55;48.57
73518;BME280;61766;60.318;25.044;2023-07-02T08:44:34;99014.17;;;20.95;49.87
73518;BME280;61766;60.318;25.044;2023-07-02T08:46:59;99009.41;;;19.82;51.10
73518;BME280;61766;60.318;25.044;2023-07-02T08:49:25;99006.60;;;21.90;46.08
73518;BME280;61766;60.318;25.044;2023-07-02T08:51:51;99016.44;;;20.85;48.54
73518;BME280;61766;60.318;25.044;2023-07-02T08:54:16;99017.68;;;20.98;48.44
73518;BME280;61766;60.318;25.044;2023-07-02T08:56:42;99013.02;;;20.95;47.95
73518;BME280;61766;60.318;25.044;2023-07-02T08:59:09;99019.34;;;20.60;48.31
73518;BME280;61766;60.318;25.044;2023-07-02T09:01:43;99012.24;;;20.21;49.20
73518;BME280;61766;60.318;25.044;2023-07-02T09:04:02;99005.48;;;19.97;49.98
73518;BME280;61766;60.318;25.044;2023-07-02T09:06:24;99008.88;;;20.83;47.74
73518;BME280;61766;60.318;25.044;2023-07-02T09:08:50;99017.92;;;19.34;50.74
73518;BME280;61766;60.318;25.044;2023-07-02T09:11:34;99020.93;;;18.77;52.53
73518;BME280;61766;60.318;25.044;2023-07-02T09:13:48;99009.25;;;19.11;52.57
73518;BME280;61766;60.318;25.044;2023-07-02T09:16:07;99009.65;;;18.20;53.94
73518;BME280;61766;60.318;25.044;2023-07-02T09:18:32;99010.86;;;17.95;54.87
73518;BME280;61766;60.318;25.044;2023-07-02T09:20:58;99006.63;;;18.06;53.51
73518;BME280;61766;60.318;25.044;2023-07-02T09:25:50;98997.22;;;19.38;50.44
73518;BME280;61766;60.318;25.044;2023-07-02T09:28:20;98996.79;;;20.02;49.55
73518;BME280;61766;60.318;25.044;2023-07-02T09:30:50;99000.65;;;19.32;51.95
73518;BME280;61766;60.318;25.044;2023-07-02T09:33:09;98995.38;;;19.40;51.01
73518;BME280;61766;60.318;25.044;2023-07-02T09:35:33;99001.84;;;18.64;52.64
73518;BME280;61766;60.318;25.044;2023-07-02T09:37:58;99010.70;;;19.24;51.28
73518;BME280;61766;60.318;25.044;2023-07-02T09:40:24;98989.00;;;18.45;53.71
73518;BME280;61766;60.318;25.044;2023-07-02T09:42:50;98987.08;;;19.07;51.51
73518;BME280;61766;60.318;25.044;2023-07-02T09:45:16;98989.27;;;18.71;51.85
73518;BME280;61766;60.318;25.044;2023-07-02T09:47:55;98986.55;;;19.63;49.58
73518;BME280;61766;60.318;25.044;2023-07-02T09:50:08;98982.18;;;18.92;49.53
73518;BME280;61766;60.318;25.044;2023-07-02T09:52:33;98977.63;;;18.68;49.70
73518;BME280;61766;60.318;25.044;2023-07-02T09:54:58;98978.03;;;20.11;47.32
73518;BME280;61766;60.318;25.044;2023-07-02T09:57:23;98979.30;;;19.94;46.86
73518;BME280;61766;60.318;25.044;2023-07-02T09:59:49;98980.24;;;20.23;46.37
73518;BME280;61766;60.318;25.044;2023-07-02T10:02:16;98978.35;;;20.22;44.54
73518;BME280;61766;60.318;25.044;2023-07-02T10:04:45;98971.64;;;20.36;46.37
73518;BME280;61766;60.318;25.044;2023-07-02T10:07:07;98975.17;;;19.99;46.21
73518;BME280;61766;60.318;25.044;2023-07-02T10:09:38;98971.04;;;20.77;44.13
73518;BME280;61766;60.318;25.044;2023-07-02T10:11:58;98967.85;;;20.67;45.03
73518;BME280;61766;60.318;25.044;2023-07-02T10:14:23;98966.54;;;20.44;45.70
73518;BME280;61766;60.318;25.044;2023-07-02T10:16:53;98965.93;;;19.87;48.18
73518;BME280;61766;60.318;25.044;2023-07-02T10:19:15;98964.40;;;20.56;46.75
73518;BME280;61766;60.318;25.044;2023-07-02T10:21:41;98963.26;;;20.21;47.00
73518;BME280;61766;60.318;25.044;2023-07-02T10:24:14;98957.54;;;19.88;48.86
73518;BME280;61766;60.318;25.044;2023-07-02T10:26:32;98961.30;;;20.39;47.62
73518;BME280;61766;60.318;25.044;2023-07-02T10:28:59;98968.42;;;19.89;47.91
73518;BME280;61766;60.318;25.044;2023-07-02T10:31:24;98955.50;;;19.39;49.88
73518;BME280;61766;60.318;25.044;2023-07-02T10:33:50;98948.01;;;19.51;48.71
73518;BME280;61766;60.318;25.044;2023-07-02T10:36:20;98950.57;;;19.59;47.55
73518;BME280;61766;60.318;25.044;2023-07-02T10:38:41;98939.63;;;21.12;45.42
73518;BME280;61766;60.318;25.044;2023-07-02T10:41:06;98943.40;;;19.20;47.79
73518;BME280;61766;60.318;25.044;2023-07-02T10:43:33;98948.57;;;20.15;45.62
73518;BME280;61766;60.318;25.044;2023-07-02T10:45:58;98943.41;;;20.07;46.02
73518;BME280;61766;60.318;25.044;2023-07-02T10:48:24;98948.36;;;18.80;47.37
73518;BME280;61766;60.318;25.044;2023-07-02T10:50:50;98940.45;;;20.66;46.18
73518;BME280;61766;60.318;25.044;2023-07-02T10:53:18;98936.80;;;19.78;46.67
73518;BME280;61766;60.318;25.044;2023-07-02T10:55:40;98933.33;;;19.76;48.42
73518;BME280;61766;60.318;25.044;2023-07-02T10:58:07;98933.71;;;19.59;48.59
73518;BME280;61766;60.318;25.044;2023-07-02T11:00:32;98933.73;;;19.61;49.41
73518;BME280;61766;60.318;25.044;2023-07-02T11:02:58;98935.90;;;19.98;48.60
73518;BME280;61766;60.318;25.044;2023-07-02T11:05:23;98931.47;;;18.99;51.31
73518;BME280;61766;60.318;25.044;2023-07-02T11:07:49;98931.03;;;19.40;50.28
73518;BME280;61766;60.318;25.044;2023-07-02T11:10:20;98940.85;;;19.29;49.65
73518;BME280;61766;60.318;25.044;2023-07-02T11:12:40;98940.81;;;19.30;49.30
73518;BME280;61766;60.318;25.044;2023-07-02T11:15:12;98938.11;;;18.35;51.74
73518;BME280;61766;60.318;25.044;2023-07-02T11:17:32;98932.90;;;19.29;50.25
73518;BME280;61766;60.318;25.044;2023-07-02T11:19:57;98936.67;;;19.39;50.60
73518;BME280;61766;60.318;25.044;2023-07-02T11:22:31;98930.21;;;19.74;49.13
73518;BME280;61766;60.318;25.044;2023-07-02T11:24:49;98926.02;;;20.30;48.57
73518;BME280;61766;60.318;25.044;2023-07-02T11:27:20;98928.40;;;19.35;49.08
73518;BME280;61766;60.318;25.044;2023-07-02T11:29:40;98924.21;;;20.75;47.83
73518;BME280;61766;60.318;25.044;2023-07-02T11:32:10;98929.71;;;20.24;48.53
73518;BME280;61766;60.318;25.044;2023-07-02T11:34:32;98924.96;;;20.51;48.85
73518;BME280;61766;60.318;25.044;2023-07-02T11:36:57;98926.27;;;19.46;49.75
73518;BME280;61766;60.318;25.044;2023-07-02T11:39:23;98933.13;;;19.08;50.76
73518;BME280;61766;60.318;25.044;2023-07-02T11:41:50;98931.90;;;19.26;50.46
73518;BME280;61766;60.318;25.044;2023-07-02T11:44:15;98929.84;;;19.65;49.65
73518;BME280;61766;60.318;25.044;2023-07-02T11:46:40;98931.08;;;20.32;48.14
73518;BME280;61766;60.318;25.044;2023-07-02T11:49:06;98931.38;;;20.33;48.44
73518;BME280;61766;60.318;25.044;2023-07-02T11:51:32;98929.84;;;19.94;49.51
73518;BME280;61766;60.318;25.044;2023-07-02T11:53:57;98937.44;;;19.15;52.75
73518;BME280;61766;60.318;25.044;2023-07-02T11:56:24;98931.80;;;18.67;54.19
73518;BME280;61766;60.318;25.044;2023-07-02T11:59:16;98935.11;;;18.47;55.34
73518;BME280;61766;60.318;25.044;2023-07-02T12:01:15;98926.78;;;18.51;54.70
73518;BME280;61766;60.318;25.044;2023-07-02T12:03:40;98922.31;;;18.70;53.72
73518;BME280;61766;60.318;25.044;2023-07-02T12:06:06;98925.20;;;18.88;53.43
73518;BME280;61766;60.318;25.044;2023-07-02T12:08:32;98931.54;;;19.25;52.54
73518;BME280;61766;60.318;25.044;2023-07-02T12:10:58;98927.72;;;17.32;54.02
73518;BME280;61766;60.318;25.044;2023-07-02T12:13:23;98931.23;;;18.30;54.18
73518;BME280;61766;60.318;25.044;2023-07-02T12:15:49;98930.75;;;17.96;55.00
73518;BME280;61766;60.318;25.044;2023-07-02T12:18:15;98922.75;;;18.44;54.28
73518;BME280;61766;60.318;25.044;2023-07-02T12:20:42;98921.89;;;18.63;54.23
73518;BME280;61766;60.318;25.044;2023-07-02T12:23:06;98918.22;;;18.91;52.87
73518;BME280;61766;60.318;25.044;2023-07-02T12:25:32;98920.80;;;19.59;51.16
73518;BME280;61766;60.318;25.044;2023-07-02T12:27:58;98920.87;;;18.50;53.67
73518;BME280;61766;60.318;25.044;2023-07-02T12:30:23;98921.03;;;18.36;53.31
73518;BME280;61766;60.318;25.044;2023-07-02T12:32:49;98914.29;;;19.11;52.86
73518;BME280;61766;60.318;25.044;2023-07-02T12:35:15;98919.34;;;18.63;54.29
73518;BME280;61766;60.318;25.044;2023-07-02T12:37:46;98922.51;;;18.34;54.95
73518;BME280;61766;60.318;25.044;2023-07-02T12:40:07;98929.17;;;17.68;57.90
73518;BME280;61766;60.318;25.044;2023-07-02T12:42:32;98926.04;;;18.68;56.86
73518;BME280;61766;60.318;25.044;2023-07-02T12:44:58;98921.12;;;18.34;56.81
73518;BME280;61766;60.318;25.044;2023-07-02T12:47:23;98918.89;;;18.58;56.75
73518;BME280;61766;60.318;25.044;2023-07-02T12:49:49;98919.18;;;19.29;54.99
73518;BME280;61766;60.318;25.044;2023-07-02T12:52:15;98914.10;;;19.06;55.79